Time;durP1;ratioP1;P1;durP2;ratioP2;P2;SDS_P1;SDS_P2;PMS_P1;PMS_P2;Temp;Humidity;BMP_temperature;BMP_pressure;BME280_temperature;BME280_humidity;BME280_pressure;Samples;Min_cycle;Max_cycle;Signal;HPM_P1;HPM_P2
2021/05/26 00:02:14;;;;;;;1.40;0.90;;;;;;;9.23;65.46;100273.47;4338342;33;35926;-96
2021/05/26 00:05:04;;;;;;;2.53;0.98;;;;;;;9.32;65.39;100280.56;4344082;33;34033;-96
2021/05/26 00:07:37;;;;;;;3.72;0.85;;;;;;;9.57;64.41;100277.91;4338427;32;32663;-90
2021/05/26 00:10:11;;;;;;;5.65;1.58;;;;;;;9.40;64.57;100268.97;4343198;33;34505;-95
2021/05/26 00:12:48;;;;;;;8.88;1.75;;;;;;;9.44;65.37;100273.00;4342374;32;34131;-90
2021/05/26 00:16:06;;;;;;;3.20;1.40;;;;;;;9.40;65.83;100270.78;4341480;33;36080;-90
2021/05/26 00:18:40;;;;;;;8.13;1.95;;;;;;;9.06;67.43;100264.50;4345058;32;34675;-93
2021/05/26 00:21:53;;;;;;;4.47;2.00;;;;;;;9.12;67.31;100266.53;3918940;27;35288;-96
2021/05/26 00:24:26;;;;;;;5.68;2.05;;;;;;;9.02;67.99;100268.53;4336043;32;34262;-96
2021/05/26 00:27:37;;;;;;;6.05;2.45;;;;;;;9.06;68.89;100263.69;4104217;32;34821;-90
2021/05/26 00:30:11;;;;;;;5.30;2.55;;;;;;;9.06;69.23;100255.59;4347021;32;33491;-91
2021/05/26 00:32:44;;;;;;;4.87;2.25;;;;;;;9.03;69.37;100256.75;4364906;32;34208;-91
2021/05/26 00:35:17;;;;;;;7.07;3.42;;;;;;;8.92;69.30;100262.44;4376171;32;34498;-96
2021/05/26 00:38:21;;;;;;;3.20;2.15;;;;;;;8.81;69.87;100253.63;4333131;27;35813;-91
2021/05/26 00:40:55;;;;;;;7.07;2.65;;;;;;;8.62;70.71;100249.38;4385692;32;34338;-95
2021/05/26 00:43:54;;;;;;;5.75;2.00;;;;;;;8.58;70.85;100258.78;4396507;27;35764;-96
2021/05/26 00:46:27;;;;;;;2.83;1.92;;;;;;;8.56;70.81;100251.88;4366769;32;33498;-95
2021/05/26 00:49:16;;;;;;;3.72;1.83;;;;;;;8.45;70.84;100250.31;4387583;32;34776;-96
2021/05/26 00:52:13;;;;;;;4.65;2.28;;;;;;;7.99;72.21;100247.81;4362536;32;36573;-95
2021/05/26 00:55:06;;;;;;;8.30;3.15;;;;;;;7.95;72.78;100250.00;4361700;32;34146;-91
2021/05/26 00:57:40;;;;;;;3.37;1.58;;;;;;;7.85;73.13;100243.03;4391349;32;33564;-94
2021/05/26 01:00:59;;;;;;;4.00;1.67;;;;;;;7.88;73.12;100231.94;4144622;32;34729;-95
2021/05/26 01:03:33;;;;;;;3.90;1.40;;;;;;;7.91;73.05;100227.09;4376848;32;34393;-96
2021/05/26 01:06:18;;;;;;;7.15;2.22;;;;;;;8.12;72.18;100223.19;4330408;33;34296;-91
2021/05/26 01:08:52;;;;;;;3.33;1.40;;;;;;;7.84;73.50;100228.72;4318800;33;35663;-89
2021/05/26 01:11:25;;;;;;;8.00;1.90;;;;;;;8.11;72.46;100226.87;4320086;33;34314;-95
2021/05/26 01:14:38;;;;;;;3.67;1.65;;;;;;;8.23;71.69;100222.06;4317475;33;36808;-90
2021/05/26 01:17:12;;;;;;;4.70;1.50;;;;;;;8.61;70.21;100223.44;4320101;33;33866;-95
2021/05/26 01:19:59;;;;;;;5.18;1.30;;;;;;;8.56;69.92;100223.09;4347211;32;33801;-95
2021/05/26 01:23:15;;;;;;;5.12;1.40;;;;;;;8.95;68.59;100222.53;4246273;27;34540;-90
2021/05/26 01:25:52;;;;;;;9.30;1.60;;;;;;;8.89;68.21;100214.25;4377668;32;33245;-90
2021/05/26 01:28:30;;;;;;;3.50;1.35;;;;;;;8.56;68.60;100217.72;4376437;32;34613;-96
2021/05/26 01:31:31;;;;;;;1.75;1.20;;;;;;;8.55;68.54;100218.69;4386126;32;34223;-91
2021/05/26 01:34:06;;;;;;;4.03;1.45;;;;;;;8.29;69.85;100219.56;4315308;33;33145;-95
2021/05/26 01:37:03;;;;;;;1.00;0.80;;;;;;;8.41;69.43;100228.22;4081517;33;36399;-92
2021/05/26 01:39:55;;;;;;;3.83;1.30;;;;;;;8.51;68.91;100233.50;4339581;32;34841;-96
2021/05/26 01:46:31;;;;;;;2.87;0.90;;;;;;;8.52;68.89;100229.81;4346347;33;34165;-95
2021/05/26 01:53:07;;;;;;;1.83;0.90;;;;;;;8.48;69.25;100239.22;4338886;33;37680;-94
2021/05/26 01:56:31;;;;;;;3.30;1.45;;;;;;;8.36;69.48;100245.88;4348081;32;35414;-94
2021/05/26 01:59:38;;;;;;;1.42;1.05;;;;;;;8.66;68.61;100241.81;4100663;32;35124;-90
2021/05/26 02:02:14;;;;;;;1.90;1.00;;;;;;;8.46;69.53;100243.94;4377555;32;33194;-95
2021/05/26 02:05:08;;;;;;;2.92;1.50;;;;;;;8.76;68.45;100239.00;4349147;32;33018;-94
2021/05/26 02:07:57;;;;;;;2.53;1.20;;;;;;;9.10;67.21;100238.03;4330827;33;34098;-89
2021/05/26 02:13:22;;;;;;;6.47;2.28;;;;;;;8.95;66.80;100236.00;4345137;33;33156;-89
2021/05/26 02:15:57;;;;;;;5.43;1.95;;;;;;;8.82;67.39;100239.16;4336987;33;34227;-90
2021/05/26 02:18:32;;;;;;;10.05;2.45;;;;;;;8.78;67.42;100250.44;4321921;33;34702;-94
2021/05/26 02:21:22;;;;;;;7.03;2.97;;;;;;;8.75;67.40;100245.38;4349128;32;34003;-90
2021/05/26 02:23:57;;;;;;;4.95;1.92;;;;;;;8.50;68.09;100250.66;4334870;33;33669;-94
2021/05/26 02:26:36;;;;;;;4.45;1.45;;;;;;;8.30;68.83;100255.41;4336420;33;34209;-92
2021/05/26 02:29:30;;;;;;;3.75;1.80;;;;;;;8.40;68.49;100255.31;4356077;32;32248;-89
2021/05/26 02:32:05;;;;;;;4.95;2.15;;;;;;;8.32;68.93;100261.47;4378820;32;33631;-94
2021/05/26 02:35:32;;;;;;;9.23;1.62;;;;;;;8.54;67.79;100254.72;3972343;32;34306;-95
2021/05/26 02:38:17;;;;;;;5.97;1.98;;;;;;;8.47;67.23;100259.06;4393909;32;36101;-90
2021/05/26 02:40:51;;;;;;;9.27;2.08;;;;;;;8.33;67.20;100265.03;4383628;32;34667;-90
2021/05/26 02:43:25;;;;;;;4.85;1.90;;;;;;;8.41;67.07;100259.69;4370525;32;35019;-90
2021/05/26 02:45:58;;;;;;;5.22;1.52;;;;;;;8.17;67.42;100257.69;4383556;32;33115;-90
2021/05/26 02:48:35;;;;;;;4.30;1.80;;;;;;;8.03;67.06;100254.59;4383533;32;34713;-90
2021/05/26 02:51:12;;;;;;;4.70;1.57;;;;;;;8.00;67.37;100257.59;4395767;32;35050;-91
2021/05/26 02:53:48;;;;;;;3.53;1.55;;;;;;;8.15;67.08;100260.56;4384101;32;33649;-94
2021/05/26 02:56:24;;;;;;;3.65;1.62;;;;;;;7.74;68.66;100271.06;4369844;32;33300;-95
2021/05/26 02:59:13;;;;;;;;;;;;;;;7.97;67.71;100274.06;4348643;32;33410;-95
2021/05/26 03:02:02;;;;;;;1.95;1.05;;;;;;;8.12;66.80;100279.72;4376024;32;34298;-88
2021/05/26 03:04:38;;;;;;;6.30;1.58;;;;;;;7.92;67.04;100282.62;4390376;32;35152;-89
2021/05/26 03:07:14;;;;;;;6.25;1.65;;;;;;;7.59;68.16;100286.91;4379196;32;33422;-89
2021/05/26 03:09:48;;;;;;;5.85;1.52;;;;;;;7.89;66.47;100288.31;4380266;32;33530;-88
2021/05/26 03:12:23;;;;;;;4.20;0.85;;;;;;;7.55;67.18;100290.88;4393486;32;34761;-95
2021/05/26 03:15:13;;;;;;;2.77;1.20;;;;;;;7.66;66.89;100281.72;4376237;32;32614;-95
2021/05/26 03:18:10;;;;;;;2.90;0.77;;;;;;;7.75;66.99;100280.78;4293576;27;34853;-94
2021/05/26 03:21:29;;;;;;;1.50;1.00;;;;;;;7.88;66.07;100293.84;4092094;32;35386;-94
2021/05/26 03:24:17;;;;;;;1.90;1.05;;;;;;;7.88;66.30;100297.38;4364084;32;35264;-95
2021/05/26 03:27:06;;;;;;;10.25;2.28;;;;;;;8.01;66.02;100296.12;4330269;33;35437;-89
2021/05/26 03:29:38;;;;;;;3.67;1.30;;;;;;;7.84;66.57;100298.69;4308969;33;33235;-89
2021/05/26 03:32:12;;;;;;;3.28;0.80;;;;;;;7.66;67.59;100305.94;4320420;33;33640;-94
2021/05/26 03:35:33;;;;;;;2.87;1.05;;;;;;;8.03;66.19;100310.28;3935155;32;35256;-94
2021/05/26 03:38:22;;;;;;;5.50;0.98;;;;;;;7.95;66.48;100309.22;4372402;32;34597;-95
2021/05/26 03:41:34;;;;;;;4.90;1.40;;;;;;;7.75;67.26;100316.62;3836441;32;34612;-92
2021/05/26 03:44:24;;;;;;;1.42;1.00;;;;;;;7.92;66.98;100298.75;4385063;32;33437;-94
2021/05/26 03:47:04;;;;;;;2.22;1.12;;;;;;;7.60;67.60;100304.72;4344377;33;35028;-93
2021/05/26 03:50:04;;;;;;;5.20;1.30;;;;;;;7.92;66.68;100298.75;4267035;33;35787;-94
2021/05/26 03:52:53;;;;;;;3.62;1.27;;;;;;;7.71;68.51;100311.69;4327611;33;34471;-95
2021/05/26 03:55:38;;;;;;;7.22;1.40;;;;;;;8.01;67.90;100294.28;4380254;32;33975;-94
2021/05/26 03:58:56;;;;;;;2.58;1.10;;;;;;;7.98;68.43;100299.13;4353362;27;35360;-89
2021/05/26 04:01:30;;;;;;;4.95;1.48;;;;;;;7.95;68.87;100298.44;4365066;32;32934;-94
2021/05/26 04:04:41;;;;;;;2.67;1.20;;;;;;;7.85;69.26;100299.56;3843468;32;34075;-95
2021/05/26 04:07:27;;;;;;;3.85;1.10;;;;;;;8.12;69.27;100295.88;4317448;33;35521;-94
2021/05/26 04:10:39;;;;;;;2.92;1.92;;;;;;;8.43;68.65;100295.41;3875114;32;36515;-92
2021/05/26 04:13:46;;;;;;;3.28;1.35;;;;;;;8.56;68.82;100303.94;4368269;27;35180;-88
2021/05/26 04:16:21;;;;;;;3.33;1.60;;;;;;;8.39;70.24;100310.19;4376214;32;34095;-89
2021/05/26 04:18:55;;;;;;;4.82;1.45;;;;;;;8.53;70.42;100317.69;4400414;32;34259;-94
2021/05/26 04:21:41;;;;;;;7.15;1.80;;;;;;;8.59;70.26;100317.06;4376558;32;35149;-95
2021/05/26 04:24:14;;;;;;;5.50;2.00;;;;;;;8.77;70.12;100311.59;4365656;32;32620;-89
2021/05/26 04:26:48;;;;;;;6.20;2.08;;;;;;;8.68;70.55;100314.41;4381713;32;33114;-94
2021/05/26 04:30:08;;;;;;;3.67;1.52;;;;;;;8.89;70.23;100312.16;4159906;33;34887;-89
2021/05/26 04:32:50;;;;;;;4.53;2.00;;;;;;;9.31;68.59;100311.25;4319836;33;34092;-95
2021/05/26 04:35:52;;;;;;;4.50;1.75;;;;;;;9.49;68.23;100308.44;4072461;33;35301;-93
2021/05/26 04:38:31;;;;;;;2.90;1.90;;;;;;;9.61;67.84;100300.00;4369824;27;34262;-94
2021/05/26 04:41:27;;;;;;;6.15;2.10;;;;;;;9.62;67.67;100297.13;4413830;27;34598;-94
2021/05/26 04:44:38;;;;;;;5.25;1.73;;;;;;;9.92;67.03;100292.06;4528194;27;35312;31
2021/05/26 05:02:37;;;;;;;5.62;1.50;;;;;;;10.85;65.43;100304.19;4673305;28;20100;31
2021/05/26 05:05:24;;;;;;;3.95;1.42;;;;;;;10.99;65.24;100289.09;4368433;28;32061;-94
2021/05/26 05:08:18;;;;;;;2.83;1.30;;;;;;;11.21;64.68;100292.00;4247821;33;35657;-93
2021/05/26 05:11:36;;;;;;;4.32;1.60;;;;;;;11.16;65.31;100299.84;4238690;33;34421;-96
2021/05/26 05:14:31;;;;;;;3.58;1.17;;;;;;;11.56;64.19;100306.03;4268558;33;32618;-94
2021/05/26 05:17:28;;;;;;;5.57;1.25;;;;;;;11.63;64.07;100306.97;4229646;28;32307;-93
2021/05/26 05:20:55;;;;;;;5.90;1.30;;;;;;;11.78;63.99;100301.59;3481381;28;20086;-96
2021/05/26 05:24:25;;;;;;;3.10;1.33;;;;;;;11.96;63.68;100293.19;4343656;28;20105;-95
2021/05/26 05:27:18;;;;;;;5.47;1.50;;;;;;;12.18;62.71;100299.59;4513244;28;32811;-95
2021/05/26 05:34:01;;;;;;;5.35;1.33;;;;;;;12.34;61.42;100299.41;4732095;28;20138;-96
2021/05/26 05:41:45;;;;;;;5.95;1.45;;;;;;;12.30;60.49;100302.69;4340344;28;20241;31
2021/05/26 05:44:34;;;;;;;3.97;1.05;;;;;;;12.84;59.35;100302.44;4436802;28;33057;-94
2021/05/26 05:47:53;;;;;;;5.43;1.17;;;;;;;13.16;55.35;100303.03;4259517;28;32588;-96
2021/05/26 05:50:52;;;;;;;2.67;1.02;;;;;;;13.24;55.75;100302.91;4215511;33;33551;-95
2021/05/26 05:53:40;;;;;;;2.45;0.85;;;;;;;13.20;54.72;100301.63;4217264;33;34239;-94
2021/05/26 05:56:25;;;;;;;2.55;0.80;;;;;;;13.21;53.84;100307.87;4226831;33;32944;-94
2021/05/26 06:03:14;;;;;;;3.83;0.68;;;;;;;13.84;51.81;100304.59;3900710;28;20248;-93
2021/05/26 06:06:47;;;;;;;4.40;0.82;;;;;;;13.82;53.01;100304.78;4193158;33;20098;-96
2021/05/26 06:10:04;;;;;;;1.98;0.84;;;;;;;13.93;50.79;100317.00;4275281;28;32894;31
2021/05/26 06:12:59;;;;;;;1.67;0.62;;;;;;;13.58;51.73;100322.31;4442390;28;33882;-95
2021/05/26 06:16:10;;;;;;;2.78;0.93;;;;;;;14.20;51.24;100306.34;4222884;33;34255;-96
2021/05/26 06:19:23;;;;;;;2.55;0.73;;;;;;;14.67;50.31;100314.84;4251178;33;33303;-96
2021/05/26 06:22:09;;;;;;;4.78;0.70;;;;;;;15.04;49.71;100312.72;4205686;34;32377;-96
2021/05/26 06:25:04;;;;;;;5.78;1.62;;;;;;;15.16;51.32;100319.25;4203414;34;33206;-93
2021/05/26 06:27:42;;;;;;;2.42;0.90;;;;;;;15.18;49.59;100319.91;4224356;33;33108;-94
2021/05/26 06:30:25;;;;;;;2.15;0.70;;;;;;;15.42;49.08;100320.41;4200967;33;34234;-96
2021/05/26 06:33:22;;;;;;;2.15;0.68;;;;;;;15.50;47.85;100312.06;4206773;28;34265;31
2021/05/26 06:39:47;;;;;;;7.22;1.60;;;;;;;15.65;46.28;100296.34;4234933;33;34056;-96
2021/05/26 06:43:21;;;;;;;1.05;0.52;;;;;;;15.92;47.66;100292.84;4209864;34;32926;-96
2021/05/26 06:46:42;;;;;;;3.30;0.62;;;;;;;16.17;47.25;100303.97;4218817;33;20174;-96
2021/05/26 06:50:01;;;;;;;2.90;0.80;;;;;;;15.96;45.29;100296.81;4180371;34;33261;-96
2021/05/26 06:53:20;;;;;;;1.42;0.50;;;;;;;16.00;46.08;100290.75;4198064;34;33471;-96
2021/05/26 06:56:25;;;;;;;2.65;0.57;;;;;;;16.29;43.64;100291.37;4223078;28;20154;-93
2021/05/26 06:59:13;;;;;;;2.65;0.80;;;;;;;16.20;41.87;100287.19;4201363;34;33644;-92
2021/05/26 07:01:51;;;;;;;2.50;0.82;;;;;;;16.33;41.14;100283.59;4224779;33;33149;-93
2021/05/26 07:04:24;;;;;;;1.83;0.75;;;;;;;16.63;41.05;100281.25;4226625;33;33497;-93
2021/05/26 07:07:01;;;;;;;2.20;0.40;;;;;;;17.00;42.05;100284.28;4214045;33;33313;-93
2021/05/26 07:09:34;;;;;;;2.97;0.60;;;;;;;16.99;40.79;100279.88;4203267;34;32335;-95
2021/05/26 07:12:26;;;;;;;3.55;0.50;;;;;;;17.05;40.20;100278.16;4234065;33;33605;-96
2021/05/26 07:15:20;;;;;;;3.57;0.77;;;;;;;17.10;42.11;100272.91;4234005;33;33622;-96
2021/05/26 07:18:26;;;;;;;3.55;0.80;;;;;;;17.38;40.96;100280.72;4181248;34;20196;-94
2021/05/26 07:21:26;;;;;;;1.33;0.60;;;;;;;17.65;41.11;100269.62;4184983;34;35054;-94
2021/05/26 07:24:03;;;;;;;0.95;0.40;;;;;;;17.74;43.32;100270.16;4175769;34;33757;-94
2021/05/26 07:26:47;;;;;;;1.45;0.77;;;;;;;17.86;38.50;100271.16;4188442;34;32975;-95
2021/05/26 07:29:20;;;;;;;2.00;0.62;;;;;;;17.98;39.97;100265.84;4200869;34;32501;-92
2021/05/26 07:31:55;;;;;;;0.77;0.40;;;;;;;18.17;38.27;100275.75;4201326;34;32896;-95
2021/05/26 07:34:33;;;;;;;1.95;0.57;;;;;;;17.89;38.01;100278.94;4201623;34;32883;-95
2021/05/26 07:37:39;;;;;;;1.98;0.82;;;;;;;18.07;36.97;100275.41;4087617;28;35110;-94
2021/05/26 07:40:44;;;;;;;4.10;0.60;;;;;;;18.47;36.25;100275.03;4134753;34;32604;-96
2021/05/26 07:48:13;;;;;;;5.55;1.23;;;;;;;18.70;35.63;100279.81;4445422;28;33421;-96
2021/05/26 07:55:22;;;;;;;4.43;0.47;;;;;;;18.74;36.43;100273.91;4260528;33;31388;-96
2021/05/26 08:02:51;;;;;;;0.75;0.30;;;;;;;19.32;34.00;100272.56;4594564;28;35160;-96
2021/05/26 08:05:29;;;;;;;4.25;1.75;;;;;;;19.14;40.29;100271.53;4208346;34;33864;-96
2021/05/26 08:08:07;;;;;;;1.85;1.02;;;;;;;19.56;39.80;100263.31;4201651;34;32247;-96
2021/05/26 08:10:47;;;;;;;1.87;0.70;;;;;;;19.70;36.26;100265.88;4208215;34;33692;-96
2021/05/26 08:13:41;;;;;;;1.67;0.50;;;;;;;19.78;34.42;100262.81;4176629;34;33461;-96
2021/05/26 08:16:20;;;;;;;1.40;0.75;;;;;;;19.49;35.66;100268.09;4191053;34;32950;-94
2021/05/26 08:18:54;;;;;;;4.85;0.98;;;;;;;19.19;35.59;100259.88;4200793;34;32906;-96
2021/05/26 08:21:32;;;;;;;3.00;0.80;;;;;;;19.33;34.01;100255.88;4192485;34;34808;-96
2021/05/26 08:24:34;;;;;;;1.98;0.70;;;;;;;19.44;35.04;100253.41;2141802;28;32669;-96
2021/05/26 08:27:22;;;;;;;1.80;0.60;;;;;;;19.28;34.17;100260.38;4237605;28;32305;31
2021/05/26 08:30:27;;;;;;;5.25;1.35;;;;;;;19.95;35.32;100251.16;4252872;28;33725;-96
2021/05/26 08:41:46;;;;;;;1.77;0.75;;;;;;;20.26;35.37;100249.97;891854;28;21237;-97
2021/05/26 08:44:47;;;;;;;3.62;0.90;;;;;;;19.74;35.75;100256.09;4118456;34;33349;-96
2021/05/26 08:47:36;;;;;;;1.60;0.70;;;;;;;19.98;37.69;100240.53;4135320;34;31877;-96
2021/05/26 08:50:21;;;;;;;4.55;1.08;;;;;;;19.91;39.04;100240.66;4150291;34;35001;-96
2021/05/26 08:53:03;;;;;;;4.80;1.33;;;;;;;19.84;37.38;100234.47;4159267;34;33276;-96
2021/05/26 09:14:31;;;;;;;5.35;1.23;;;;;;;20.82;34.61;100214.69;3059863;29;20388;-90
2021/05/26 09:28:44;;;;;;;1.55;0.60;;;;;;;20.82;33.13;100203.69;4560363;28;34615;-96
2021/05/26 09:31:30;;;;;;;4.15;1.15;;;;;;;21.05;33.07;100202.78;4197356;34;32452;-95
2021/05/26 09:34:38;;;;;;;1.48;0.70;;;;;;;20.13;33.93;100198.91;4174336;34;34966;-92
2021/05/26 09:37:16;;;;;;;1.65;0.88;;;;;;;20.35;36.25;100201.06;4186887;34;33680;-95
2021/05/26 09:40:19;;;;;;;3.42;1.15;;;;;;;19.91;34.07;100187.69;4222728;28;33597;-96
2021/05/26 09:44:09;;;;;;;;;;;;;;;;;;;;;
2021/05/26 09:47:36;;;;;;;1.42;0.80;;;;;;;20.64;35.30;100177.22;4220355;33;33415;-96
2021/05/26 09:50:17;;;;;;;6.37;0.80;;;;;;;20.69;33.68;100179.25;4201629;34;32076;-93
2021/05/26 09:52:55;;;;;;;0.95;0.65;;;;;;;20.83;36.05;100175.16;4208197;34;32377;-92
2021/05/26 09:55:46;;;;;;;2.85;1.00;;;;;;;21.63;32.26;100175.22;4221628;33;32965;-91
2021/05/26 09:58:31;;;;;;;7.25;0.85;;;;;;;21.58;31.78;100166.91;4213117;34;34599;-93
2021/05/26 10:04:43;;;;;;;2.92;0.90;;;;;;;21.82;33.96;100171.12;4227761;28;20122;-94
2021/05/26 10:07:51;;;;;;;1.95;1.00;;;;;;;22.30;31.72;100155.00;4214651;33;33191;-96
2021/05/26 10:10:36;;;;;;;6.05;0.90;;;;;;;22.82;30.87;100156.50;4218466;33;34402;-94
2021/05/26 10:13:15;;;;;;;4.18;1.20;;;;;;;22.59;30.66;100154.88;4216206;33;33810;-94
2021/05/26 10:15:55;;;;;;;2.05;0.85;;;;;;;22.98;29.50;100157.50;4218080;33;34293;-94
2021/05/26 10:18:41;;;;;;;6.78;1.48;;;;;;;23.60;30.17;100136.84;4216045;33;33462;-93
2021/05/26 10:21:20;;;;;;;3.75;0.98;;;;;;;23.87;31.40;100137.88;4202491;33;34198;-91
2021/05/26 10:23:57;;;;;;;5.35;1.20;;;;;;;24.09;30.88;100135.81;4210114;33;33987;-95
2021/05/26 10:29:47;;;;;;;3.25;0.80;;;;;;;23.36;29.81;100133.62;4214825;33;32778;-96
2021/05/26 10:33:01;;;;;;;1.33;0.70;;;;;;;23.48;28.11;100130.69;4072510;28;34756;-88
2021/05/26 10:36:00;;;;;;;1.42;0.65;;;;;;;23.90;27.57;100118.03;4175280;34;34142;-90
2021/05/26 10:39:01;;;;;;;2.55;0.73;;;;;;;24.80;26.76;100120.62;4199585;34;33563;-91
2021/05/26 10:41:50;;;;;;;1.83;0.68;;;;;;;22.81;29.69;100127.28;4209258;33;33785;-96
2021/05/26 10:45:09;;;;;;;4.40;0.98;;;;;;;22.89;30.37;100126.00;4212670;33;34090;-91
2021/05/26 10:47:43;;;;;;;1.87;0.62;;;;;;;23.18;30.81;100117.47;4208510;33;32905;-94
2021/05/26 10:50:52;;;;;;;3.58;0.90;;;;;;;22.90;30.17;100117.47;4221183;33;32992;-96
2021/05/26 10:53:39;;;;;;;6.15;1.10;;;;;;;23.12;29.33;100115.78;4212424;33;33108;-96
2021/05/26 10:56:37;;;;;;;3.85;0.88;;;;;;;23.95;28.29;100107.00;4223102;33;37186;-95
2021/05/26 10:59:14;;;;;;;3.35;1.37;;;;;;;23.50;29.50;100111.09;4211399;33;34270;-87
2021/05/26 11:02:09;;;;;;;3.45;0.85;;;;;;;24.00;28.12;100103.44;4228563;33;33969;-96
2021/05/26 11:04:42;;;;;;;3.15;0.95;;;;;;;24.62;27.22;100094.31;4229240;33;34603;-96
2021/05/26 11:07:30;;;;;;;2.40;0.60;;;;;;;24.94;28.84;100090.53;4217173;33;33862;-87
2021/05/26 11:10:06;;;;;;;3.00;0.70;;;;;;;25.68;26.42;100087.50;4219438;33;34324;-87
2021/05/26 11:13:16;;;;;;;2.87;0.80;;;;;;;24.48;28.30;100087.66;4229640;33;33861;-88
2021/05/26 11:16:00;;;;;;;2.80;0.90;;;;;;;24.55;28.09;100077.19;4236327;33;33438;-90
2021/05/26 11:19:21;;;;;;;4.07;1.37;;;;;;;25.03;26.72;100072.28;4198754;33;34572;-96
2021/05/26 11:22:27;;;;;;;;;;;;;;;24.67;26.85;100071.41;4227091;33;33831;-96
2021/05/26 11:25:16;;;;;;;1.30;0.80;;;;;;;24.75;27.09;100062.59;4226289;33;31868;-96
2021/05/26 11:28:00;;;;;;;2.05;0.85;;;;;;;24.62;27.68;100071.41;4222690;33;34710;-96
2021/05/26 11:30:33;;;;;;;1.58;0.80;;;;;;;24.99;29.04;100065.66;4217249;33;33620;-89
2021/05/26 11:33:15;;;;;;;2.65;0.95;;;;;;;25.28;27.02;100058.75;4200343;34;33334;-87
2021/05/26 11:35:49;;;;;;;5.68;0.90;;;;;;;25.15;26.21;100060.97;4212601;34;33221;-90
2021/05/26 11:38:24;;;;;;;3.17;0.82;;;;;;;26.00;25.29;100062.22;4204942;34;33678;-93
2021/05/26 11:41:02;;;;;;;6.05;1.23;;;;;;;26.07;24.59;100056.41;4200157;34;34591;-94
2021/05/26 11:43:35;;;;;;;2.37;1.00;;;;;;;26.63;24.50;100051.66;4212973;33;34291;-86
2021/05/26 11:46:10;;;;;;;3.42;0.98;;;;;;;27.22;24.97;100052.66;4211756;34;34200;-88
2021/05/26 11:48:47;;;;;;;5.28;1.45;;;;;;;27.42;23.37;100044.13;4220617;33;34404;-96
2021/05/26 11:51:25;;;;;;;2.17;0.60;;;;;;;27.49;23.53;100043.81;4217781;33;35950;-96
2021/05/26 11:54:00;;;;;;;4.40;0.80;;;;;;;27.06;24.47;100049.16;4202979;33;32576;-87
2021/05/26 11:57:00;;;;;;;2.60;0.75;;;;;;;26.51;25.13;100039.00;4201909;34;34098;-87
2021/05/26 11:59:34;;;;;;;3.58;1.42;;;;;;;25.79;24.66;100022.69;4202214;34;35156;-87
2021/05/26 12:02:08;;;;;;;5.35;1.12;;;;;;;27.24;24.37;100023.47;4205919;34;33719;-93
2021/05/26 12:04:43;;;;;;;4.03;0.93;;;;;;;27.36;24.52;100031.44;4198043;34;32770;-96
2021/05/26 12:07:29;;;;;;;2.47;0.82;;;;;;;27.40;22.44;100003.94;4201891;34;34615;-90
2021/05/26 12:10:02;;;;;;;1.73;0.70;;;;;;;28.69;21.66;100001.19;4225967;33;34572;-93
2021/05/26 12:12:36;;;;;;;3.95;0.90;;;;;;;28.23;21.76;99999.06;4202674;34;33435;-90
2021/05/26 12:15:11;;;;;;;4.10;0.85;;;;;;;28.78;21.90;99992.97;4201827;34;33567;-93
2021/05/26 12:17:43;;;;;;;3.28;0.80;;;;;;;28.74;22.08;99993.87;4201686;34;33154;-95
2021/05/26 12:20:43;;;;;;;2.22;0.73;;;;;;;27.22;22.50;99997.97;4202966;34;33214;-96
2021/05/26 12:23:40;;;;;;;5.75;1.00;;;;;;;26.30;23.86;99987.59;4216303;33;34258;-96
2021/05/26 12:26:37;;;;;;;4.12;0.82;;;;;;;26.22;24.00;99994.56;4213720;33;34849;-93
2021/05/26 12:29:24;;;;;;;4.03;1.00;;;;;;;26.44;23.04;99988.63;4202202;34;34027;-96
2021/05/26 12:32:04;;;;;;;2.45;0.73;;;;;;;26.99;23.25;99968.25;4204374;34;33375;-95
2021/05/26 12:34:59;;;;;;;2.05;0.80;;;;;;;27.81;22.36;99959.03;4211899;34;33966;-96
2021/05/26 12:37:46;;;;;;;2.42;0.55;;;;;;;28.27;21.45;99960.41;4209846;34;34831;-96
2021/05/26 12:40:27;;;;;;;1.85;0.80;;;;;;;29.00;21.18;99956.16;4202915;34;33004;-96
2021/05/26 12:43:24;;;;;;;3.65;0.90;;;;;;;28.35;21.26;99943.88;4221784;33;33459;-91
2021/05/26 12:45:58;;;;;;;;;;;;;;;29.01;20.81;99940.31;4222182;33;34836;-96
2021/05/26 12:48:56;;;;;;;1.75;0.60;;;;;;;29.16;22.33;99950.31;4228077;33;34063;-93
2021/05/26 12:51:43;;;;;;;3.58;0.85;;;;;;;29.43;21.00;99943.97;4220027;33;34341;-91
2021/05/26 12:54:17;;;;;;;2.50;0.80;;;;;;;29.42;19.26;99942.34;4221591;33;33646;-92
2021/05/26 12:57:07;;;;;;;1.20;0.50;;;;;;;28.97;22.33;99928.97;4216628;33;34507;-96
2021/05/26 12:59:43;;;;;;;2.92;0.90;;;;;;;29.43;20.43;99924.50;4202229;33;33714;-90
2021/05/26 13:02:16;;;;;;;1.92;0.52;;;;;;;26.00;22.84;99934.03;4218610;33;34108;-95
2021/05/26 13:04:55;;;;;;;3.40;1.10;;;;;;;27.02;23.15;99917.75;4219349;33;34973;-94
2021/05/26 13:07:44;;;;;;;1.95;0.70;;;;;;;26.75;23.51;99919.97;4208721;33;35704;-93
2021/05/26 13:10:22;;;;;;;1.95;0.55;;;;;;;27.10;23.49;99911.56;4218578;33;33535;-92
2021/05/26 13:13:16;;;;;;;5.45;1.65;;;;;;;26.67;22.13;99914.22;4227186;33;34105;-96
2021/05/26 13:16:00;;;;;;;5.00;1.10;;;;;;;26.17;23.25;99905.97;4222740;33;34519;-96
2021/05/26 13:18:40;;;;;;;3.78;0.80;;;;;;;25.68;24.50;99907.63;4223826;33;33146;-93
2021/05/26 13:21:16;;;;;;;6.00;0.93;;;;;;;24.58;25.59;99901.72;4211459;33;34331;-93
2021/05/26 13:23:50;;;;;;;6.65;0.98;;;;;;;24.89;24.69;99901.75;4218476;33;33557;-92
2021/05/26 13:26:29;;;;;;;4.50;0.90;;;;;;;25.26;24.81;99895.03;4214577;33;33793;-96
2021/05/26 13:29:10;;;;;;;2.42;0.77;;;;;;;26.06;25.59;99899.66;4210610;34;33682;-94
2021/05/26 13:31:54;;;;;;;3.62;0.98;;;;;;;26.30;23.14;99887.88;4222283;33;33254;-94
2021/05/26 13:34:30;;;;;;;8.02;2.05;;;;;;;26.92;24.35;99889.00;4231664;33;33135;-94
2021/05/26 13:37:11;;;;;;;2.08;0.75;;;;;;;26.73;23.20;99882.56;4219309;33;34635;-94
2021/05/26 13:39:46;;;;;;;2.47;0.90;;;;;;;25.93;23.77;99889.19;4213661;33;33340;-90
2021/05/26 13:42:23;;;;;;;4.55;0.73;;;;;;;25.63;24.01;99888.25;4222356;33;33564;-95
2021/05/26 13:45:08;;;;;;;6.15;1.05;;;;;;;24.39;25.13;99880.22;4211392;33;32991;-90
2021/05/26 13:47:42;;;;;;;3.80;0.70;;;;;;;25.94;23.88;99874.25;4219855;33;33366;-95
2021/05/26 13:50:17;;;;;;;4.50;0.68;;;;;;;25.48;23.87;99880.84;4217852;33;34009;-89
2021/05/26 13:53:00;;;;;;;4.50;0.60;;;;;;;24.45;24.27;99862.53;4217637;33;34874;-91
2021/05/26 13:55:38;;;;;;;2.15;0.77;;;;;;;25.81;23.88;99867.41;4231760;33;33128;-94
2021/05/26 13:58:20;;;;;;;0.93;0.50;;;;;;;25.68;24.10;99857.81;4210723;33;35353;-94
2021/05/26 14:01:03;;;;;;;1.52;0.60;;;;;;;26.44;22.04;99847.31;4220708;33;34735;-92
2021/05/26 14:03:40;;;;;;;3.70;0.70;;;;;;;27.08;21.90;99841.69;4205844;33;34329;-92
2021/05/26 14:06:14;;;;;;;4.40;0.50;;;;;;;27.57;21.96;99835.00;4220204;33;32550;-93
2021/05/26 14:08:53;;;;;;;2.55;0.62;;;;;;;27.92;20.47;99832.84;4222692;33;33975;-91
2021/05/26 14:11:38;;;;;;;2.20;0.88;;;;;;;27.00;21.01;99840.41;4224140;33;33705;-93
2021/05/26 14:14:19;;;;;;;2.70;0.60;;;;;;;27.95;20.95;99825.84;4222700;33;33572;-93
2021/05/26 14:16:56;;;;;;;0.90;0.40;;;;;;;27.88;20.29;99829.00;4227221;33;33273;-93
2021/05/26 14:19:36;;;;;;;0.93;0.60;;;;;;;27.48;22.60;99831.25;4210890;33;33311;-93
2021/05/26 14:22:49;;;;;;;2.42;0.60;;;;;;;27.85;19.51;99820.47;4209458;33;33960;-95
2021/05/26 14:25:29;;;;;;;3.62;0.95;;;;;;;28.16;19.97;99818.87;4220539;33;33792;-93
2021/05/26 14:28:15;;;;;;;1.95;0.80;;;;;;;28.66;21.57;99812.75;4206816;34;33102;-96
2021/05/26 14:32:09;;;;;;;5.15;0.80;;;;;;;29.08;19.83;99812.75;4216917;33;33790;-96
2021/05/26 14:35:18;;;;;;;1.55;0.50;;;;;;;28.13;20.56;99818.63;4156477;34;34666;-94
2021/05/26 14:38:13;;;;;;;1.23;0.50;;;;;;;28.61;19.37;99803.66;4157979;34;34001;-93
2021/05/26 14:40:52;;;;;;;3.08;1.25;;;;;;;28.68;18.87;99798.53;4157748;34;33413;-93
2021/05/26 14:43:48;;;;;;;3.53;0.62;;;;;;;28.83;19.12;99800.19;4144021;34;33341;-94
2021/05/26 14:46:30;;;;;;;2.08;0.70;;;;;;;28.79;19.89;99788.03;4144112;34;34080;-93
2021/05/26 14:49:33;;;;;;;1.45;0.50;;;;;;;29.73;20.40;99794.94;4155292;34;34634;-94
2021/05/26 14:53:08;;;;;;;3.17;0.60;;;;;;;29.06;18.34;99787.22;4139300;34;32443;-96
2021/05/26 14:57:49;;;;;;;;;;;;;;;;;;;;;
2021/05/26 15:00:40;;;;;;;4.70;1.08;;;;;;;32.08;16.06;99773.88;4184441;34;34568;-92